createdAt,value
2023-04-30T00:00:33.270Z,9.55
2023-04-30T00:05:34.919Z,9.58
2023-04-30T00:10:36.565Z,9.58
2023-04-30T00:15:38.141Z,9.56
2023-04-30T00:20:39.707Z,9.54
2023-04-30T00:25:41.381Z,9.52
2023-04-30T00:30:43.116Z,9.47
2023-04-30T00:35:45.165Z,9.48
2023-04-30T00:40:49.896Z,9.49
2023-04-30T00:45:51.584Z,9.49
2023-04-30T00:50:53.254Z,9.44
2023-04-30T00:55:55.941Z,9.40
2023-04-30T01:00:58.634Z,9.42
2023-04-30T01:06:00.472Z,9.43
2023-04-30T01:11:13.126Z,9.36
2023-04-30T01:16:28.519Z,9.27
2023-04-30T01:21:33.216Z,9.20
2023-04-30T01:26:48.949Z,9.21
2023-04-30T01:31:51.783Z,9.23
2023-04-30T01:37:11.600Z,9.22
2023-04-30T01:42:41.543Z,9.22
2023-04-30T01:48:08.927Z,9.25
2023-04-30T01:53:16.907Z,9.36
2023-04-30T01:58:22.662Z,9.44
2023-04-30T02:03:24.636Z,9.47
2023-04-30T02:08:27.216Z,9.51
2023-04-30T02:13:28.823Z,9.53
2023-04-30T02:18:30.572Z,9.57
2023-04-30T02:23:32.182Z,9.60
2023-04-30T02:28:33.973Z,9.68
2023-04-30T02:33:35.618Z,9.73
2023-04-30T02:38:37.199Z,9.73
2023-04-30T02:43:38.862Z,9.73
2023-04-30T02:48:40.493Z,9.71
2023-04-30T02:53:42.042Z,9.73
2023-04-30T02:58:43.463Z,9.71
2023-04-30T03:03:45.032Z,9.70
2023-04-30T03:08:46.947Z,9.70
2023-04-30T03:13:51.907Z,9.69
2023-04-30T03:18:53.670Z,9.64
2023-04-30T03:23:55.180Z,9.61
2023-04-30T03:28:56.783Z,9.59
2023-04-30T03:33:58.463Z,9.55
2023-04-30T03:39:00.546Z,9.46
2023-04-30T03:44:02.138Z,9.36
2023-04-30T03:49:03.753Z,9.21
2023-04-30T03:54:08.504Z,9.06
2023-04-30T03:59:10.253Z,8.95
2023-04-30T04:04:12.019Z,8.88
2023-04-30T04:09:13.638Z,8.84
2023-04-30T04:14:17.152Z,8.82
2023-04-30T04:19:19.155Z,8.73
2023-04-30T04:24:21.195Z,8.70
2023-04-30T04:29:23.335Z,8.73
2023-04-30T04:34:24.862Z,8.81
2023-04-30T04:39:26.634Z,8.88
2023-04-30T04:44:29.057Z,8.95
2023-04-30T04:49:31.063Z,8.96
2023-04-30T04:54:32.616Z,9.03
2023-04-30T04:59:34.218Z,9.14
2023-04-30T05:04:35.792Z,9.18
2023-04-30T05:09:37.421Z,9.17
2023-04-30T05:14:39.054Z,9.21
2023-04-30T05:19:40.796Z,9.19
2023-04-30T05:24:42.366Z,9.17
2023-04-30T05:29:43.881Z,9.21
2023-04-30T05:34:45.386Z,9.25
2023-04-30T05:39:47.001Z,9.32
2023-04-30T05:44:49.271Z,9.41
2023-04-30T05:49:50.812Z,9.61
2023-04-30T05:54:52.315Z,9.95
2023-04-30T05:59:54.815Z,10.19
2023-04-30T06:04:56.710Z,10.51
2023-04-30T06:09:58.939Z,10.97
2023-04-30T06:15:00.642Z,11.50
2023-04-30T06:20:06.857Z,11.79
2023-04-30T06:25:09.038Z,12.09
2023-04-30T06:30:11.049Z,12.21
2023-04-30T06:35:12.635Z,12.22
2023-04-30T06:40:14.147Z,12.22
2023-04-30T06:45:15.692Z,12.19
2023-04-30T06:50:17.276Z,12.41
2023-04-30T06:55:19.029Z,12.90
2023-04-30T07:00:20.637Z,13.14
2023-04-30T07:05:22.176Z,13.22
2023-04-30T07:10:23.826Z,13.17
2023-04-30T07:15:25.392Z,13.16
2023-04-30T07:20:26.918Z,13.23
2023-04-30T07:25:28.442Z,13.37
2023-04-30T07:30:29.940Z,13.51
2023-04-30T07:35:31.463Z,13.45
2023-04-30T07:40:36.151Z,13.44
2023-04-30T07:45:38.388Z,13.52
2023-04-30T07:50:40.007Z,13.84
2023-04-30T07:55:41.571Z,14.14
2023-04-30T08:00:43.206Z,13.79
2023-04-30T08:05:44.796Z,13.89
2023-04-30T08:10:46.336Z,14.31
2023-04-30T08:15:47.975Z,14.07
2023-04-30T08:20:50.041Z,14.27
2023-04-30T08:25:51.780Z,14.92
2023-04-30T08:30:55.874Z,15.31
2023-04-30T08:35:57.478Z,15.59
2023-04-30T08:41:12.120Z,15.70
2023-04-30T08:46:16.653Z,15.90
2023-04-30T08:51:18.671Z,15.97
2023-04-30T08:56:22.253Z,16.20
2023-04-30T09:01:25.754Z,16.21
2023-04-30T09:06:27.498Z,17.04
2023-04-30T09:11:30.935Z,16.63
2023-04-30T09:16:47.008Z,16.30
2023-04-30T09:21:48.502Z,16.02
2023-04-30T09:26:51.082Z,15.64
2023-04-30T09:31:52.681Z,15.60
2023-04-30T09:36:55.197Z,15.68
2023-04-30T09:42:12.441Z,15.65
2023-04-30T09:47:21.119Z,16.06
2023-04-30T09:52:22.911Z,16.14
2023-04-30T09:57:24.744Z,16.25
2023-04-30T10:02:27.164Z,16.39
2023-04-30T10:07:36.271Z,16.63
2023-04-30T10:12:54.913Z,16.78
2023-04-30T10:18:06.480Z,16.82
2023-04-30T10:23:08.551Z,16.64
2023-04-30T10:28:11.512Z,16.43
2023-04-30T10:33:20.077Z,16.78
2023-04-30T10:38:27.817Z,16.83
2023-04-30T10:43:33.369Z,16.98
2023-04-30T10:48:36.042Z,16.79
2023-04-30T10:53:40.185Z,16.85
2023-04-30T10:58:41.857Z,17.04
2023-04-30T11:04:05.335Z,16.97
2023-04-30T11:09:07.331Z,16.90
2023-04-30T11:14:11.759Z,16.95
2023-04-30T11:19:14.160Z,17.45
2023-04-30T11:24:15.759Z,17.84
2023-04-30T11:29:18.043Z,18.39
2023-04-30T11:34:20.089Z,18.53
2023-04-30T11:39:22.487Z,18.53
2023-04-30T11:44:27.692Z,18.47
2023-04-30T11:49:29.355Z,18.85
2023-04-30T11:54:35.638Z,18.79
2023-04-30T11:59:42.374Z,18.81
2023-04-30T12:04:45.282Z,18.11
2023-04-30T12:09:57.243Z,17.78
2023-04-30T12:15:10.324Z,17.94
2023-04-30T12:20:15.116Z,18.59
2023-04-30T12:25:19.535Z,18.11
2023-04-30T12:30:23.635Z,17.86
2023-04-30T12:35:29.062Z,17.93
2023-04-30T12:40:30.764Z,17.93
2023-04-30T12:45:55.774Z,17.98
2023-04-30T12:51:02.098Z,18.12
2023-04-30T12:56:09.964Z,18.49
2023-04-30T13:01:15.376Z,18.71
2023-04-30T13:06:17.230Z,18.73
2023-04-30T13:11:18.813Z,18.75
2023-04-30T13:16:20.473Z,18.98
2023-04-30T13:21:22.972Z,18.66
2023-04-30T13:26:24.515Z,18.75
2023-04-30T13:31:26.169Z,18.75
2023-04-30T13:36:28.765Z,18.79
2023-04-30T13:41:30.343Z,18.78
2023-04-30T13:46:32.035Z,18.67
2023-04-30T13:51:33.714Z,18.54
2023-04-30T13:56:35.417Z,18.65
2023-04-30T14:01:36.979Z,18.26
2023-04-30T14:06:38.834Z,17.95
2023-04-30T14:11:41.554Z,18.32
2023-04-30T14:16:44.848Z,18.31
2023-04-30T14:21:49.049Z,17.89
2023-04-30T14:26:50.582Z,17.70
2023-04-30T14:31:52.130Z,17.60
2023-04-30T14:36:53.760Z,17.60
2023-04-30T14:41:57.406Z,17.77
2023-04-30T14:46:59.252Z,17.99
2023-04-30T14:52:00.931Z,18.37
2023-04-30T14:57:04.047Z,18.51
2023-04-30T15:02:06.376Z,18.15
2023-04-30T15:07:07.910Z,18.04
2023-04-30T15:12:09.445Z,17.86
2023-04-30T15:17:11.346Z,17.69
2023-04-30T15:22:13.304Z,17.63
2023-04-30T15:27:14.833Z,17.78
2023-04-30T15:32:17.169Z,17.88
2023-04-30T15:37:18.954Z,17.91
2023-04-30T15:42:20.592Z,17.79
2023-04-30T15:47:23.985Z,17.81
2023-04-30T15:52:25.777Z,17.94
2023-04-30T15:57:27.546Z,17.80
2023-04-30T16:02:30.189Z,17.61
2023-04-30T16:07:32.251Z,17.52
2023-04-30T16:12:34.294Z,17.61
2023-04-30T16:17:35.861Z,17.50
2023-04-30T16:22:37.521Z,17.61
2023-04-30T16:27:39.380Z,17.48
2023-04-30T16:32:41.404Z,17.32
2023-04-30T16:37:42.928Z,17.40
2023-04-30T16:42:44.444Z,17.37
2023-04-30T16:47:46.032Z,17.23
2023-04-30T16:52:47.578Z,17.17
2023-04-30T16:57:49.270Z,17.14
2023-04-30T17:02:52.996Z,17.11
2023-04-30T17:07:55.246Z,17.11
2023-04-30T17:13:03.917Z,16.97
2023-04-30T17:18:06.170Z,16.75
2023-04-30T17:23:07.882Z,16.61
2023-04-30T17:28:09.470Z,16.49
2023-04-30T17:33:11.228Z,16.39
2023-04-30T17:38:12.769Z,16.25
2023-04-30T17:43:14.426Z,16.13
2023-04-30T17:48:15.940Z,15.97
2023-04-30T17:53:17.454Z,15.83
2023-04-30T17:58:19.223Z,15.69
2023-04-30T18:03:20.907Z,15.49
2023-04-30T18:08:22.698Z,15.28
2023-04-30T18:13:24.214Z,15.05
2023-04-30T18:18:25.779Z,14.80
2023-04-30T18:23:27.376Z,14.51
2023-04-30T18:28:29.144Z,14.17
2023-04-30T18:33:31.120Z,13.83
2023-04-30T18:38:32.998Z,13.53
2023-04-30T18:43:37.106Z,13.27
2023-04-30T18:48:38.734Z,13.00
2023-04-30T18:53:41.844Z,12.74
2023-04-30T18:58:45.607Z,12.49
2023-04-30T19:03:47.727Z,12.26
2023-04-30T19:08:49.661Z,12.04
2023-04-30T19:13:51.354Z,11.82
2023-04-30T19:18:52.924Z,11.63
2023-04-30T19:23:54.599Z,11.46
2023-04-30T19:28:56.176Z,11.29
2023-04-30T19:33:59.833Z,11.08
2023-04-30T19:39:01.404Z,10.94
2023-04-30T19:44:03.057Z,10.80
2023-04-30T19:49:04.629Z,10.69
2023-04-30T19:54:06.730Z,10.55
2023-04-30T19:59:09.378Z,10.42
2023-04-30T20:04:11.099Z,10.29
2023-04-30T20:09:12.761Z,10.19
2023-04-30T20:14:14.268Z,10.05
2023-04-30T20:19:15.790Z,9.99
2023-04-30T20:24:17.746Z,9.99
2023-04-30T20:29:20.677Z,9.80
2023-04-30T20:34:22.974Z,9.74
2023-04-30T20:39:24.692Z,9.67
2023-04-30T20:44:26.892Z,9.56
2023-04-30T20:49:28.633Z,9.47
2023-04-30T20:54:30.378Z,9.36
2023-04-30T20:59:32.523Z,9.38
2023-04-30T21:04:34.252Z,9.31
2023-04-30T21:09:37.031Z,9.22
2023-04-30T21:14:38.611Z,9.17
2023-04-30T21:19:40.468Z,9.06
2023-04-30T21:24:42.591Z,8.99
2023-04-30T21:29:44.142Z,8.93
2023-04-30T21:34:46.019Z,8.85
2023-04-30T21:39:47.543Z,8.75
2023-04-30T21:44:49.146Z,8.62
2023-04-30T21:49:50.753Z,8.48
2023-04-30T21:54:52.334Z,8.31
2023-04-30T21:59:54.197Z,8.36
2023-04-30T22:04:57.438Z,8.26
2023-04-30T22:09:59.093Z,8.18
2023-04-30T22:15:01.668Z,7.86
2023-04-30T22:20:03.431Z,7.81
2023-04-30T22:25:05.533Z,7.82
2023-04-30T22:30:07.585Z,7.84
2023-04-30T22:35:10.959Z,8.05
2023-04-30T22:40:12.827Z,8.08
2023-04-30T22:45:14.619Z,8.05
2023-04-30T22:50:16.560Z,7.98
2023-04-30T22:55:18.427Z,7.95
2023-04-30T23:00:20.288Z,7.95
2023-04-30T23:05:21.842Z,7.90
2023-04-30T23:10:23.478Z,7.91
2023-04-30T23:15:25.995Z,7.93
2023-04-30T23:20:28.344Z,8.03
2023-04-30T23:25:32.239Z,8.03
2023-04-30T23:30:37.921Z,7.95
2023-04-30T23:35:42.286Z,7.94
2023-04-30T23:40:43.901Z,7.97
2023-04-30T23:45:45.540Z,8.01
2023-04-30T23:50:47.944Z,8.03
2023-04-30T23:55:49.592Z,8.03
